createdAt,value
2018-10-07T00:00:30.309Z,977.51
2018-10-07T00:01:30.253Z,977.55
2018-10-07T00:02:30.216Z,977.54
2018-10-07T00:03:30.174Z,977.54
2018-10-07T00:04:30.165Z,977.54
2018-10-07T00:05:30.114Z,977.56
2018-10-07T00:06:30.073Z,977.57
2018-10-07T00:07:30.048Z,977.56
2018-10-07T00:08:30.001Z,977.56
2018-10-07T00:09:29.964Z,977.58
2018-10-07T00:10:29.924Z,977.55
2018-10-07T00:11:29.879Z,977.59
2018-10-07T00:12:29.841Z,977.58
2018-10-07T00:13:29.805Z,977.55
2018-10-07T00:14:29.763Z,977.60
2018-10-07T00:15:29.751Z,977.59
2018-10-07T00:16:29.714Z,977.57
2018-10-07T00:17:29.658Z,977.56
2018-10-07T00:18:29.638Z,977.57
2018-10-07T00:19:29.575Z,977.55
2018-10-07T00:20:29.575Z,977.59
2018-10-07T00:21:29.515Z,977.57
2018-10-07T00:22:29.472Z,977.59
2018-10-07T00:23:29.472Z,977.59
2018-10-07T00:24:29.402Z,977.58
2018-10-07T00:25:29.350Z,977.60
2018-10-07T00:26:29.326Z,977.58
2018-10-07T00:27:29.288Z,977.55
2018-10-07T00:28:29.246Z,977.55
2018-10-07T00:29:29.273Z,977.57
2018-10-07T00:30:29.167Z,977.57
2018-10-07T00:31:29.129Z,977.58
2018-10-07T00:34:00.912Z,977.58
2018-10-07T00:35:00.804Z,977.62
2018-10-07T00:36:53.832Z,977.61
2018-10-07T00:37:53.804Z,977.60
2018-10-07T00:39:46.999Z,977.65
2018-10-07T00:40:46.831Z,977.68
2018-10-07T00:41:46.794Z,977.66
2018-10-07T00:43:46.698Z,977.67
2018-10-07T00:44:46.668Z,977.70
2018-10-07T00:45:46.618Z,977.70
2018-10-07T00:46:46.654Z,977.71
2018-10-07T00:47:46.564Z,977.73
2018-10-07T00:48:46.527Z,977.69
2018-10-07T00:49:46.480Z,977.73
2018-10-07T00:50:46.438Z,977.75
2018-10-07T00:51:46.396Z,977.73
2018-10-07T00:52:46.365Z,977.79
2018-10-07T00:53:46.325Z,977.74
2018-10-07T00:54:46.279Z,977.76
2018-10-07T00:55:46.255Z,977.72
2018-10-07T00:56:46.222Z,977.76
2018-10-07T00:57:46.169Z,977.71
2018-10-07T00:58:46.134Z,977.67
2018-10-07T00:59:46.109Z,977.71
2018-10-07T01:00:46.052Z,977.70
2018-10-07T01:01:46.010Z,977.67
2018-10-07T01:02:45.986Z,977.68
2018-10-07T01:03:45.934Z,977.66
2018-10-07T01:04:45.896Z,977.67
2018-10-07T01:05:45.862Z,977.69
2018-10-07T01:06:45.836Z,977.65
2018-10-07T01:07:45.811Z,977.62
2018-10-07T01:08:45.757Z,977.66
2018-10-07T01:09:45.754Z,977.61
2018-10-07T01:10:45.702Z,977.66
2018-10-07T01:11:45.635Z,977.66
2018-10-07T01:12:45.593Z,977.65
2018-10-07T01:13:45.569Z,977.69
2018-10-07T01:14:45.521Z,977.66
2018-10-07T01:15:45.492Z,977.66
2018-10-07T01:16:45.478Z,977.68
2018-10-07T01:17:45.419Z,977.67
2018-10-07T01:18:45.395Z,977.72
2018-10-07T01:19:45.332Z,977.69
2018-10-07T01:20:45.302Z,977.70
2018-10-07T01:21:45.251Z,977.71
2018-10-07T01:22:45.215Z,977.73
2018-10-07T01:23:45.170Z,977.76
2018-10-07T01:24:45.137Z,977.77
2018-10-07T01:25:45.110Z,977.74
2018-10-07T01:26:45.060Z,977.76
2018-10-07T01:27:45.010Z,977.75
2018-10-07T01:28:44.980Z,977.78
2018-10-07T01:29:44.972Z,977.72
2018-10-07T01:30:44.922Z,977.75
2018-10-07T01:31:44.860Z,977.76
2018-10-07T01:32:44.844Z,977.77
2018-10-07T01:33:44.795Z,977.81
2018-10-07T01:34:44.755Z,977.81
2018-10-07T01:35:44.731Z,977.81
2018-10-07T01:36:44.675Z,977.83
2018-10-07T01:37:44.631Z,977.80
2018-10-07T01:38:44.625Z,977.80
2018-10-07T01:39:44.553Z,977.85
2018-10-07T01:40:44.512Z,977.83
2018-10-07T01:41:44.488Z,977.83
2018-10-07T01:42:44.446Z,977.86
2018-10-07T01:43:44.427Z,977.83
2018-10-07T01:44:44.388Z,977.85
2018-10-07T01:45:44.335Z,977.83
2018-10-07T01:46:44.288Z,977.88
2018-10-07T01:47:44.250Z,977.85
2018-10-07T01:48:44.225Z,977.85
2018-10-07T01:49:44.195Z,977.86
2018-10-07T01:50:44.156Z,977.87
2018-10-07T01:51:44.127Z,977.85
2018-10-07T01:52:44.056Z,977.90
2018-10-07T01:53:44.011Z,977.91
2018-10-07T01:54:43.979Z,977.89
2018-10-07T01:55:43.941Z,977.91
2018-10-07T01:56:43.911Z,977.90
2018-10-07T01:57:43.864Z,977.91
2018-10-07T01:58:43.825Z,977.90
2018-10-07T01:59:43.787Z,977.96
2018-10-07T02:00:43.753Z,977.93
2018-10-07T02:01:43.715Z,977.95
2018-10-07T02:02:43.667Z,977.93
2018-10-07T02:03:43.625Z,977.95
2018-10-07T02:04:43.587Z,977.95
2018-10-07T02:05:43.552Z,977.92
2018-10-07T02:06:43.512Z,977.92
2018-10-07T02:07:43.489Z,977.94
2018-10-07T02:08:43.461Z,977.91
2018-10-07T02:09:43.403Z,977.96
2018-10-07T02:10:43.362Z,977.96
2018-10-07T02:11:43.339Z,977.95
2018-10-07T02:12:43.306Z,977.92
2018-10-07T02:13:43.272Z,977.94
2018-10-07T02:14:43.215Z,977.96
2018-10-07T02:15:43.260Z,977.97
2018-10-07T02:16:43.134Z,977.96
2018-10-07T02:17:43.106Z,977.97
2018-10-07T02:18:43.054Z,977.96
2018-10-07T02:19:43.019Z,977.98
2018-10-07T02:20:42.972Z,977.99
2018-10-07T02:21:42.946Z,977.96
2018-10-07T02:22:42.897Z,977.98
2018-10-07T02:23:42.854Z,978.03
2018-10-07T02:24:42.852Z,978.00
2018-10-07T02:25:42.770Z,978.03
2018-10-07T02:26:42.766Z,978.04
2018-10-07T02:27:42.692Z,978.07
2018-10-07T02:28:42.666Z,978.09
2018-10-07T02:29:42.627Z,978.10
2018-10-07T02:30:42.584Z,978.07
2018-10-07T02:31:42.534Z,978.07
2018-10-07T02:32:42.503Z,978.08
2018-10-07T02:33:42.460Z,978.12
2018-10-07T02:34:42.430Z,978.10
2018-10-07T02:35:42.385Z,978.06
2018-10-07T02:36:42.342Z,978.08
2018-10-07T02:37:42.304Z,978.13
2018-10-07T02:38:42.266Z,978.13
2018-10-07T02:39:42.251Z,978.11
2018-10-07T02:40:42.184Z,978.13
2018-10-07T02:41:42.164Z,978.12
2018-10-07T02:42:42.114Z,978.11
2018-10-07T02:43:42.090Z,978.11
2018-10-07T02:44:42.056Z,978.13
2018-10-07T02:45:42.020Z,978.12
2018-10-07T02:46:41.959Z,978.14
2018-10-07T02:47:41.940Z,978.18
2018-10-07T02:48:41.888Z,978.15
2018-10-07T02:49:41.827Z,978.17
2018-10-07T02:50:41.824Z,978.18
2018-10-07T02:51:41.780Z,978.21
2018-10-07T02:52:41.749Z,978.14
2018-10-07T02:53:41.735Z,978.16
2018-10-07T02:54:41.645Z,978.15
2018-10-07T02:55:41.603Z,978.14
2018-10-07T02:56:41.574Z,978.18
2018-10-07T02:57:41.519Z,978.16
2018-10-07T02:58:41.512Z,978.21
2018-10-07T02:59:41.446Z,978.17
2018-10-07T03:00:41.407Z,978.16
2018-10-07T03:01:41.361Z,978.15
2018-10-07T03:02:41.347Z,978.17
2018-10-07T03:03:41.289Z,978.14
2018-10-07T03:04:41.295Z,978.17
2018-10-07T03:05:41.207Z,978.15
2018-10-07T03:06:41.177Z,978.17
2018-10-07T03:07:41.134Z,978.16
2018-10-07T03:08:41.095Z,978.21
2018-10-07T03:09:41.078Z,978.18
2018-10-07T03:10:41.014Z,978.19
2018-10-07T03:11:41.057Z,978.20
2018-10-07T03:12:40.943Z,978.20
2018-10-07T03:13:40.964Z,978.22
2018-10-07T03:14:40.860Z,978.26
2018-10-07T03:15:40.873Z,978.26
2018-10-07T03:16:40.790Z,978.27
2018-10-07T03:17:40.742Z,978.19
2018-10-07T03:18:40.700Z,978.26
2018-10-07T03:19:40.669Z,978.28
2018-10-07T03:20:40.641Z,978.25
2018-10-07T03:21:40.569Z,978.27
2018-10-07T03:22:40.641Z,978.24
2018-10-07T03:23:40.600Z,978.27
2018-10-07T03:24:40.506Z,978.29
2018-10-07T03:25:40.423Z,978.27
2018-10-07T03:26:40.400Z,978.27
2018-10-07T03:27:40.347Z,978.27
2018-10-07T03:28:40.306Z,978.24
2018-10-07T03:29:40.277Z,978.23
2018-10-07T03:30:40.237Z,978.25
2018-10-07T03:31:40.204Z,978.24
2018-10-07T03:32:40.165Z,978.31
2018-10-07T03:33:40.133Z,978.28
2018-10-07T03:34:40.080Z,978.34
2018-10-07T03:35:40.029Z,978.36
2018-10-07T03:36:40.044Z,978.28
2018-10-07T03:37:39.955Z,978.31
2018-10-07T03:38:39.919Z,978.26
2018-10-07T03:39:39.877Z,978.27
2018-10-07T03:40:39.857Z,978.29
2018-10-07T03:41:39.808Z,978.30
2018-10-07T03:42:39.800Z,978.31
2018-10-07T03:43:39.752Z,978.28
2018-10-07T03:44:39.683Z,978.32
2018-10-07T03:45:39.643Z,978.30
2018-10-07T03:46:39.640Z,978.33
2018-10-07T03:47:39.559Z,978.25
2018-10-07T03:48:39.527Z,978.31
2018-10-07T03:49:39.505Z,978.32
2018-10-07T03:50:39.441Z,978.29
2018-10-07T03:51:39.401Z,978.34
2018-10-07T03:52:39.383Z,978.32
2018-10-07T03:53:39.326Z,978.41
2018-10-07T03:54:39.295Z,978.45
2018-10-07T03:55:39.256Z,978.42
2018-10-07T03:56:39.224Z,978.47
2018-10-07T03:57:39.168Z,978.46
2018-10-07T03:58:39.129Z,978.44
2018-10-07T03:59:39.087Z,978.46
2018-10-07T04:00:39.070Z,978.46
2018-10-07T04:01:39.008Z,978.50
2018-10-07T04:02:38.978Z,978.53
2018-10-07T04:03:38.936Z,978.55
2018-10-07T04:04:38.904Z,978.55
2018-10-07T04:05:38.866Z,978.51
2018-10-07T04:06:38.823Z,978.52
2018-10-07T04:07:38.772Z,978.50
2018-10-07T04:08:38.734Z,978.45
2018-10-07T04:09:38.696Z,978.42
2018-10-07T04:10:38.666Z,978.48
2018-10-07T04:11:38.616Z,978.46
2018-10-07T04:12:38.613Z,978.48
2018-10-07T04:13:38.535Z,978.48
2018-10-07T04:14:38.498Z,978.48
2018-10-07T04:15:38.477Z,978.51
2018-10-07T04:16:38.426Z,978.49
2018-10-07T04:17:38.398Z,978.50
2018-10-07T04:18:38.343Z,978.51
2018-10-07T04:19:38.305Z,978.51
2018-10-07T04:20:38.263Z,978.51
2018-10-07T04:21:38.225Z,978.56
2018-10-07T04:22:38.195Z,978.58
2018-10-07T04:23:38.167Z,978.63
2018-10-07T04:24:38.110Z,978.64
2018-10-07T04:25:38.070Z,978.63
2018-10-07T04:26:38.038Z,978.66
2018-10-07T04:27:38.021Z,978.68
2018-10-07T04:28:37.969Z,978.66
2018-10-07T04:29:37.931Z,978.71
2018-10-07T04:30:37.873Z,978.69
2018-10-07T04:31:37.878Z,978.72
2018-10-07T04:32:37.799Z,978.70
2018-10-07T04:33:37.828Z,978.72
2018-10-07T04:34:37.711Z,978.80
2018-10-07T04:35:37.684Z,978.82
2018-10-07T04:36:37.628Z,978.82
2018-10-07T04:37:37.599Z,978.80
2018-10-07T04:38:37.567Z,978.78
2018-10-07T04:39:37.580Z,978.82
2018-10-07T04:40:37.500Z,978.83
2018-10-07T04:41:37.438Z,978.85
2018-10-07T04:42:37.425Z,978.84
2018-10-07T04:43:37.367Z,978.85
2018-10-07T04:44:37.339Z,978.81
2018-10-07T04:45:37.278Z,978.85
2018-10-07T04:46:37.251Z,978.85
2018-10-07T04:47:37.206Z,978.86
2018-10-07T04:48:37.171Z,978.88
2018-10-07T04:49:37.119Z,978.86
2018-10-07T04:50:37.080Z,978.91
2018-10-07T04:51:37.066Z,978.95
2018-10-07T04:52:37.034Z,978.95
2018-10-07T04:53:37.016Z,978.97
2018-10-07T04:54:36.955Z,978.93
2018-10-07T04:55:36.901Z,978.97
2018-10-07T04:56:36.861Z,978.97
2018-10-07T04:57:36.855Z,979.00
2018-10-07T04:58:36.803Z,979.06
2018-10-07T04:59:36.738Z,979.11
2018-10-07T05:00:36.710Z,979.16
2018-10-07T05:01:36.650Z,979.19
2018-10-07T05:02:36.627Z,979.16
2018-10-07T05:03:36.585Z,979.22
2018-10-07T05:04:36.562Z,979.21
2018-10-07T05:05:36.527Z,979.20
2018-10-07T05:06:36.473Z,979.23
2018-10-07T05:07:36.418Z,979.21
2018-10-07T05:08:36.404Z,979.21
2018-10-07T05:09:36.375Z,979.23
2018-10-07T05:10:36.297Z,979.24
2018-10-07T05:11:36.274Z,979.27
2018-10-07T05:12:36.236Z,979.26
2018-10-07T05:13:36.195Z,979.32
2018-10-07T05:14:36.157Z,979.33
2018-10-07T05:15:36.118Z,979.35
2018-10-07T05:16:36.075Z,979.37
2018-10-07T05:17:36.034Z,979.38
2018-10-07T05:18:35.984Z,979.39
2018-10-07T05:19:35.944Z,979.41
2018-10-07T05:20:35.892Z,979.43
2018-10-07T05:21:35.851Z,979.41
2018-10-07T05:22:35.841Z,979.47
2018-10-07T05:23:35.808Z,979.44
2018-10-07T05:24:35.754Z,979.46
2018-10-07T05:25:35.731Z,979.48
2018-10-07T05:26:35.672Z,979.48
2018-10-07T05:27:35.625Z,979.51
2018-10-07T05:28:35.582Z,979.54
2018-10-07T05:29:35.572Z,979.52
2018-10-07T05:30:35.535Z,979.58
2018-10-07T05:31:35.491Z,979.62
2018-10-07T05:32:35.441Z,979.63
2018-10-07T05:33:35.503Z,979.64
2018-10-07T05:34:35.362Z,979.65
2018-10-07T05:35:35.320Z,979.73
2018-10-07T05:36:35.280Z,979.71
2018-10-07T05:37:35.239Z,979.76
2018-10-07T05:38:35.217Z,979.78
2018-10-07T05:39:35.157Z,979.80
2018-10-07T05:40:35.129Z,979.80
2018-10-07T05:41:35.067Z,979.80
2018-10-07T05:42:35.049Z,979.84
2018-10-07T05:43:34.986Z,979.86
2018-10-07T05:44:35.143Z,979.91
2018-10-07T05:45:34.915Z,979.92
2018-10-07T05:46:34.867Z,979.94
2018-10-07T05:47:34.844Z,979.97
2018-10-07T05:48:34.783Z,980.02
2018-10-07T05:49:34.762Z,980.03
2018-10-07T05:50:34.720Z,980.10
2018-10-07T05:51:34.667Z,980.11
2018-10-07T05:52:34.635Z,980.15
2018-10-07T05:53:34.603Z,980.19
2018-10-07T05:54:34.561Z,980.19
2018-10-07T05:55:34.577Z,980.19
2018-10-07T05:56:34.496Z,980.20
2018-10-07T05:57:34.451Z,980.22
2018-10-07T05:58:34.412Z,980.30
2018-10-07T05:59:34.364Z,980.29
2018-10-07T06:00:34.372Z,980.31
2018-10-07T06:01:34.286Z,980.31
2018-10-07T06:02:34.296Z,980.36
2018-10-07T06:03:34.223Z,980.40
2018-10-07T06:04:34.173Z,980.38
2018-10-07T06:05:34.140Z,980.37
2018-10-07T06:06:34.087Z,980.41
2018-10-07T06:07:34.086Z,980.43
2018-10-07T06:08:34.072Z,980.40
2018-10-07T06:09:33.987Z,980.39
2018-10-07T06:10:33.950Z,980.39
2018-10-07T06:11:33.893Z,980.43
2018-10-07T06:12:33.860Z,980.44
2018-10-07T06:13:33.828Z,980.49
2018-10-07T06:14:33.809Z,980.52
2018-10-07T06:15:33.760Z,980.58
2018-10-07T06:16:33.709Z,980.59
2018-10-07T06:17:33.702Z,980.61
2018-10-07T06:18:33.653Z,980.65
2018-10-07T06:19:33.620Z,980.68
2018-10-07T06:20:33.559Z,980.64
2018-10-07T06:21:33.609Z,980.69
2018-10-07T06:22:33.484Z,980.70
2018-10-07T06:23:33.431Z,980.78
2018-10-07T06:24:33.406Z,980.81
2018-10-07T06:25:33.363Z,980.80
2018-10-07T06:26:33.321Z,980.85
2018-10-07T06:27:33.283Z,980.86
2018-10-07T06:28:33.261Z,980.91
2018-10-07T06:29:33.229Z,980.91
2018-10-07T06:30:33.198Z,980.93
2018-10-07T06:31:33.139Z,980.93
2018-10-07T06:32:33.085Z,980.97
2018-10-07T06:33:33.079Z,980.99
2018-10-07T06:34:33.017Z,981.01
2018-10-07T06:35:32.975Z,981.02
2018-10-07T06:36:32.954Z,981.02
2018-10-07T06:37:32.894Z,981.07
2018-10-07T06:38:32.916Z,981.05
2018-10-07T06:39:32.836Z,981.05
2018-10-07T06:40:32.801Z,981.02
2018-10-07T06:41:32.746Z,981.01
2018-10-07T06:42:32.729Z,981.04
2018-10-07T06:43:32.665Z,981.10
2018-10-07T06:44:32.658Z,981.16
2018-10-07T06:45:32.629Z,981.22
2018-10-07T06:46:32.561Z,981.25
2018-10-07T06:47:32.523Z,981.31
2018-10-07T06:48:32.490Z,981.39
2018-10-07T06:49:32.441Z,981.40
2018-10-07T06:50:32.430Z,981.48
2018-10-07T06:51:32.380Z,981.46
2018-10-07T06:52:32.357Z,981.47
2018-10-07T06:53:32.301Z,981.50
2018-10-07T06:54:32.270Z,981.49
2018-10-07T06:55:32.217Z,981.44
2018-10-07T06:56:32.191Z,981.43
2018-10-07T06:57:32.160Z,981.40
2018-10-07T06:58:32.128Z,981.44
2018-10-07T06:59:32.089Z,981.48
2018-10-07T07:00:32.044Z,981.47
2018-10-07T07:01:32.014Z,981.48
2018-10-07T07:02:31.985Z,981.48
2018-10-07T07:03:31.928Z,981.52
2018-10-07T07:04:31.923Z,981.54
2018-10-07T07:05:31.880Z,981.54
2018-10-07T07:06:31.901Z,981.52
2018-10-07T07:07:31.779Z,981.49
2018-10-07T07:08:31.745Z,981.48
2018-10-07T07:09:31.717Z,981.48
2018-10-07T07:10:31.749Z,981.46
2018-10-07T07:11:31.648Z,981.50
2018-10-07T07:12:31.625Z,981.49
2018-10-07T07:13:31.588Z,981.51
2018-10-07T07:14:31.562Z,981.52
2018-10-07T07:15:31.499Z,981.50
2018-10-07T07:16:31.472Z,981.54
2018-10-07T07:17:31.425Z,981.52
2018-10-07T07:18:31.400Z,981.52
2018-10-07T07:19:31.366Z,981.53
2018-10-07T07:20:31.336Z,981.53
2018-10-07T07:21:31.279Z,981.59
2018-10-07T07:22:31.246Z,981.60
2018-10-07T07:23:31.215Z,981.64
2018-10-07T07:24:31.190Z,981.70
2018-10-07T07:25:31.158Z,981.71
2018-10-07T07:26:31.109Z,981.74
2018-10-07T07:27:31.102Z,981.74
2018-10-07T07:28:31.060Z,981.72
2018-10-07T07:29:31.005Z,981.70
2018-10-07T07:30:30.978Z,981.69
2018-10-07T07:31:31.006Z,981.71
2018-10-07T07:32:30.906Z,981.71
2018-10-07T07:33:30.874Z,981.78
2018-10-07T07:34:30.853Z,981.78
2018-10-07T07:35:30.820Z,981.80
2018-10-07T07:36:30.779Z,981.81
2018-10-07T07:37:30.765Z,981.82
2018-10-07T07:38:30.719Z,981.82
2018-10-07T07:39:30.671Z,981.88
2018-10-07T07:40:30.643Z,981.91
2018-10-07T07:41:30.614Z,981.89
2018-10-07T07:42:30.655Z,981.90
2018-10-07T07:43:30.577Z,981.90
2018-10-07T07:44:30.507Z,981.91
2018-10-07T07:45:30.465Z,981.94
2018-10-07T07:46:30.447Z,981.97
2018-10-07T07:47:30.398Z,982.00
2018-10-07T07:48:30.376Z,982.03
2018-10-07T07:49:30.341Z,982.00
2018-10-07T07:50:30.298Z,982.00
2018-10-07T07:51:30.262Z,982.04
2018-10-07T07:52:30.235Z,982.07
2018-10-07T07:53:30.200Z,982.09
2018-10-07T07:54:30.154Z,982.18
2018-10-07T07:55:30.129Z,982.19
2018-10-07T07:56:30.089Z,982.19
2018-10-07T07:57:30.073Z,982.23
2018-10-07T07:58:30.030Z,982.22
2018-10-07T07:59:29.995Z,982.24
2018-10-07T08:00:29.967Z,982.30
2018-10-07T08:01:29.920Z,982.32
2018-10-07T08:02:29.888Z,982.28
2018-10-07T08:03:29.875Z,982.30
2018-10-07T08:04:29.825Z,982.27
2018-10-07T08:05:29.799Z,982.33
2018-10-07T08:06:29.783Z,982.31
2018-10-07T08:07:29.729Z,982.33
2018-10-07T08:08:29.713Z,982.36
2018-10-07T08:09:29.659Z,982.37
2018-10-07T08:10:29.633Z,982.38
2018-10-07T08:11:29.623Z,982.46
2018-10-07T08:12:29.559Z,982.49
2018-10-07T08:13:29.546Z,982.53
2018-10-07T08:14:29.487Z,982.61
2018-10-07T08:15:29.474Z,982.61
2018-10-07T08:16:29.453Z,982.58
2018-10-07T08:17:29.525Z,982.64
2018-10-07T08:18:29.358Z,982.61
2018-10-07T08:19:29.340Z,982.66
2018-10-07T08:20:29.300Z,982.65
2018-10-07T08:21:29.273Z,982.68
2018-10-07T08:22:29.242Z,982.67
2018-10-07T08:23:29.275Z,982.69
2018-10-07T08:24:29.185Z,982.69
2018-10-07T08:25:29.142Z,982.66
2018-10-07T08:26:29.108Z,982.72
2018-10-07T08:27:29.076Z,982.80
2018-10-07T08:28:29.053Z,982.72
2018-10-07T08:29:29.047Z,982.72
2018-10-07T08:30:28.987Z,982.67
2018-10-07T08:31:29.058Z,982.77
2018-10-07T08:32:28.927Z,982.76
2018-10-07T08:33:28.889Z,982.82
2018-10-07T08:34:28.892Z,982.85
2018-10-07T08:35:28.831Z,982.87
2018-10-07T08:36:28.815Z,982.88
2018-10-07T08:37:28.784Z,982.88
2018-10-07T08:38:28.758Z,982.90
2018-10-07T08:39:28.717Z,982.95
2018-10-07T08:40:28.695Z,982.97
2018-10-07T08:41:28.659Z,983.03
2018-10-07T08:42:28.641Z,983.02
2018-10-07T08:43:28.598Z,983.05
2018-10-07T08:44:28.574Z,983.03
2018-10-07T08:45:28.538Z,983.06
2018-10-07T08:46:28.507Z,983.05
2018-10-07T08:47:28.477Z,983.11
2018-10-07T08:48:28.447Z,983.15
2018-10-07T08:49:28.414Z,983.14
2018-10-07T08:50:28.379Z,983.14
2018-10-07T08:51:28.362Z,983.13
2018-10-07T08:52:28.337Z,983.16
2018-10-07T08:53:28.304Z,983.23
2018-10-07T08:54:28.279Z,983.18
2018-10-07T08:55:28.251Z,983.20
2018-10-07T08:56:28.246Z,983.20
2018-10-07T08:57:28.180Z,983.24
2018-10-07T08:58:28.142Z,983.26
2018-10-07T08:59:28.119Z,983.26
2018-10-07T09:00:28.120Z,983.23
2018-10-07T09:01:28.058Z,983.28
2018-10-07T09:02:28.016Z,983.35
2018-10-07T09:03:28.003Z,983.39
2018-10-07T09:04:27.980Z,983.40
2018-10-07T09:05:27.946Z,983.37
2018-10-07T09:06:27.913Z,983.40
2018-10-07T09:07:27.927Z,983.37
2018-10-07T09:08:27.851Z,983.39
2018-10-07T09:09:27.833Z,983.39
2018-10-07T09:10:27.804Z,983.43
2018-10-07T09:11:27.803Z,983.46
2018-10-07T09:12:27.812Z,983.43
2018-10-07T09:13:27.705Z,983.40
2018-10-07T09:14:27.674Z,983.53
2018-10-07T09:15:27.640Z,983.53
2018-10-07T09:16:27.600Z,983.50
2018-10-07T09:17:27.598Z,983.55
2018-10-07T09:18:27.534Z,983.55
2018-10-07T09:19:27.500Z,983.55
2018-10-07T09:20:27.471Z,983.56
2018-10-07T09:21:27.440Z,983.60
2018-10-07T09:22:27.411Z,983.61
2018-10-07T09:23:27.372Z,983.65
2018-10-07T09:24:27.335Z,983.63
2018-10-07T09:25:27.307Z,983.67
2018-10-07T09:26:27.329Z,983.68
2018-10-07T09:27:27.304Z,983.69
2018-10-07T09:28:27.219Z,983.67
2018-10-07T09:29:27.179Z,983.73
2018-10-07T09:30:27.142Z,983.78
2018-10-07T09:31:27.109Z,983.80
2018-10-07T09:32:27.150Z,983.84
2018-10-07T09:33:27.044Z,983.88
2018-10-07T09:34:27.015Z,983.88
2018-10-07T09:35:26.984Z,983.87
2018-10-07T09:36:26.945Z,983.92
2018-10-07T09:37:26.917Z,983.90
2018-10-07T09:38:26.878Z,983.99
2018-10-07T09:39:26.901Z,983.99
2018-10-07T09:40:26.821Z,983.97
2018-10-07T09:41:26.810Z,984.04
2018-10-07T09:42:27.250Z,984.03
2018-10-07T09:43:26.792Z,984.08
2018-10-07T09:44:26.678Z,984.02
2018-10-07T09:45:26.654Z,984.07
2018-10-07T09:46:26.607Z,984.07
2018-10-07T09:47:26.573Z,984.07
2018-10-07T09:48:26.542Z,984.05
2018-10-07T09:49:26.514Z,984.12
2018-10-07T09:50:26.483Z,984.15
2018-10-07T09:51:26.448Z,984.14
2018-10-07T09:52:26.479Z,984.11
2018-10-07T09:53:26.372Z,984.21
2018-10-07T09:54:26.343Z,984.26
2018-10-07T09:55:26.303Z,984.20
2018-10-07T09:56:26.269Z,984.19
2018-10-07T09:57:26.226Z,984.23
2018-10-07T09:58:26.215Z,984.22
2018-10-07T09:59:26.160Z,984.28
2018-10-07T10:00:26.122Z,984.26
2018-10-07T10:01:26.165Z,984.26
2018-10-07T10:02:26.060Z,984.36
2018-10-07T10:03:26.045Z,984.32
2018-10-07T10:04:26.004Z,984.30
2018-10-07T10:05:25.953Z,984.36
2018-10-07T10:06:25.932Z,984.35
2018-10-07T10:07:25.892Z,984.34
2018-10-07T10:08:25.917Z,984.35
2018-10-07T10:09:25.840Z,984.39
2018-10-07T10:10:25.828Z,984.39
2018-10-07T10:11:25.954Z,984.40
2018-10-07T10:12:25.754Z,984.41
2018-10-07T10:13:25.699Z,984.45
2018-10-07T10:14:25.655Z,984.47
2018-10-07T10:15:25.626Z,984.48
2018-10-07T10:16:25.627Z,984.43
2018-10-07T10:17:25.559Z,984.46
2018-10-07T10:18:25.510Z,984.47
2018-10-07T10:19:25.491Z,984.47
2018-10-07T10:20:25.447Z,984.49
2018-10-07T10:21:25.427Z,984.48
2018-10-07T10:22:25.413Z,984.53
2018-10-07T10:23:25.352Z,984.59
2018-10-07T10:24:25.339Z,984.58
2018-10-07T10:25:25.264Z,984.54
2018-10-07T10:26:25.278Z,984.58
2018-10-07T10:27:25.211Z,984.58
2018-10-07T10:28:25.182Z,984.58
2018-10-07T10:29:25.134Z,984.58
2018-10-07T10:30:25.151Z,984.55
2018-10-07T10:31:25.063Z,984.60
2018-10-07T10:32:25.013Z,984.59
2018-10-07T10:33:25.001Z,984.50
2018-10-07T10:34:25.073Z,984.58
2018-10-07T10:35:24.930Z,984.59
2018-10-07T10:36:25.124Z,984.61
2018-10-07T10:37:24.974Z,984.60
2018-10-07T10:38:24.858Z,984.59
2018-10-07T10:39:24.857Z,984.63
2018-10-07T10:40:24.791Z,984.64
2018-10-07T10:41:24.800Z,984.64
2018-10-07T10:42:24.686Z,984.59
2018-10-07T10:43:24.677Z,984.60
2018-10-07T10:44:24.633Z,984.57
2018-10-07T10:45:24.618Z,984.63
2018-10-07T10:46:24.742Z,984.67
2018-10-07T10:47:24.554Z,984.64
2018-10-07T10:48:24.470Z,984.70
2018-10-07T10:49:24.432Z,984.69
2018-10-07T10:50:24.416Z,984.68
2018-10-07T10:51:24.363Z,984.71
2018-10-07T10:52:24.333Z,984.75
2018-10-07T10:53:24.370Z,984.75
2018-10-07T10:54:24.304Z,984.76
2018-10-07T10:55:24.226Z,984.75
2018-10-07T10:56:24.218Z,984.74
2018-10-07T10:57:24.165Z,984.75
2018-10-07T10:58:24.126Z,984.75
2018-10-07T10:59:24.151Z,984.75
2018-10-07T11:00:24.075Z,984.74
2018-10-07T11:01:24.021Z,984.73
2018-10-07T11:02:24.004Z,984.76
2018-10-07T11:03:23.983Z,984.75
2018-10-07T11:04:23.977Z,984.72
2018-10-07T11:05:23.932Z,984.75
2018-10-07T11:06:23.981Z,984.76
2018-10-07T11:07:23.835Z,984.77
2018-10-07T11:08:23.776Z,984.77
2018-10-07T11:09:23.745Z,984.79
2018-10-07T11:10:23.732Z,984.83
2018-10-07T11:11:23.702Z,984.86
2018-10-07T11:12:23.676Z,984.89
2018-10-07T11:13:23.640Z,984.91
2018-10-07T11:14:23.603Z,984.90
2018-10-07T11:15:23.582Z,984.90
2018-10-07T11:16:23.517Z,984.88
2018-10-07T11:17:23.540Z,984.93
2018-10-07T11:18:23.437Z,984.93
2018-10-07T11:19:23.422Z,984.90
2018-10-07T11:20:23.360Z,984.97
2018-10-07T11:21:23.423Z,984.95
2018-10-07T11:22:23.442Z,984.98
2018-10-07T11:23:23.283Z,984.95
2018-10-07T11:24:23.276Z,984.97
2018-10-07T11:25:23.276Z,984.97
2018-10-07T11:26:23.280Z,985.02
2018-10-07T11:27:23.136Z,984.99
2018-10-07T11:28:23.141Z,985.00
2018-10-07T11:29:23.064Z,985.03
2018-10-07T11:30:23.046Z,984.98
2018-10-07T11:31:23.093Z,985.01
2018-10-07T11:32:22.993Z,984.98
2018-10-07T11:33:23.084Z,985.03
2018-10-07T11:34:22.924Z,984.99
2018-10-07T11:35:22.864Z,985.01
2018-10-07T11:36:22.808Z,985.02
2018-10-07T11:37:22.881Z,985.04
2018-10-07T11:38:22.905Z,985.05
2018-10-07T11:39:22.877Z,985.09
2018-10-07T11:40:22.806Z,985.06
2018-10-07T11:41:22.632Z,985.08
2018-10-07T11:42:22.677Z,985.05
2018-10-07T11:43:22.634Z,985.07
2018-10-07T11:44:22.611Z,985.10
2018-10-07T11:45:22.683Z,985.12
2018-10-07T11:46:22.525Z,985.08
2018-10-07T11:47:22.427Z,985.07
2018-10-07T11:48:22.450Z,985.10
2018-10-07T11:49:22.425Z,985.10
2018-10-07T11:50:22.377Z,985.07
2018-10-07T11:51:22.405Z,985.06
2018-10-07T11:52:22.365Z,985.06
2018-10-07T11:53:22.397Z,985.07
2018-10-07T11:54:22.292Z,985.08
2018-10-07T11:55:22.237Z,985.00
2018-10-07T11:56:22.183Z,985.08
2018-10-07T11:57:22.236Z,985.05
2018-10-07T11:58:22.220Z,985.13
2018-10-07T11:59:22.040Z,985.11
2018-10-07T12:00:22.174Z,985.13
2018-10-07T12:01:21.938Z,985.12
2018-10-07T12:02:21.947Z,985.14
2018-10-07T12:03:21.870Z,985.21
2018-10-07T12:04:21.807Z,985.17
2018-10-07T12:05:21.790Z,985.24
2018-10-07T12:06:21.739Z,985.24
2018-10-07T12:07:21.743Z,985.26
2018-10-07T12:08:21.684Z,985.28
2018-10-07T12:09:21.646Z,985.29
2018-10-07T12:10:21.729Z,985.26
2018-10-07T12:11:21.584Z,985.28
2018-10-07T12:12:21.524Z,985.30
2018-10-07T12:13:21.496Z,985.29
2018-10-07T12:14:21.468Z,985.33
2018-10-07T12:15:21.430Z,985.31
2018-10-07T12:16:21.460Z,985.36
2018-10-07T12:17:21.340Z,985.36
2018-10-07T12:18:21.358Z,985.37
2018-10-07T12:19:21.273Z,985.37
2018-10-07T12:20:21.314Z,985.37
2018-10-07T12:21:21.216Z,985.33
2018-10-07T12:22:21.176Z,985.31
2018-10-07T12:23:21.153Z,985.36
2018-10-07T12:24:21.144Z,985.35
2018-10-07T12:25:21.050Z,985.36
2018-10-07T12:26:21.032Z,985.38
2018-10-07T12:27:20.993Z,985.40
2018-10-07T12:28:20.963Z,985.44
2018-10-07T12:29:20.925Z,985.45
2018-10-07T12:30:20.874Z,985.49
2018-10-07T12:31:20.846Z,985.44
2018-10-07T12:32:20.869Z,985.50